Historyczne dane pomiarowe

Dodano dane terminowe – wersja testowa.

Dane z okresu 1951-2019

Wersja bazy: 1.34 [2019-03-16, lista zmian], aktualizacja planowana na 2019-04-15

Dane meteo z obszaru Polski uzyskane na podstawie danych udostępnionych przez Instytut Meteorologii i Gospodarki Wodnej – Państwowy Instytut Badawczy.

 

Wybierz Datę:    

       

TemperaturaWilgotnośćWiatrCiśnienieOpadyŚniegCzas trwania zjawisk
 Stacja t tx tn tng RH VA  wxwx mslp ppp RRR   cm mm wxwxwxwxwxwxwx
1983-08-14 13.3 16.3 10.2- 85.5- 2.7 3.7---- 1.5------------
1983-08-13 14.7 19.3 11.1- 87.3- 8.0 3.7---- 6.2------------
1983-08-12 18.4 24.9 16.3- 84.0- 6.3 2.7---- 2.0------------
1983-08-11 17.9 21.3 14.9- 88.3- 7.3 2.0---- 8.9------------
1983-08-10 18.0 24.1 11.7- 86.8- 5.3 2.0---- 3.6------------
1983-08-09 17.3 24.3 12.1- 88.3- 7.0 2.7---- 3.1------------
1983-08-08 17.1 22.5 14.7- 90.0- 8.0 3.0---- 8.3------------
1983-08-07 16.1 20.3 13.9- 92.0- 7.3 2.0---- 7.7------------
1983-08-06 15.7 20.8 11.4- 76.0- 6.0 2.3---- 0.0------------
1983-08-05 12.3 16.9 9.9- 87.5- 8.0 1.3---- 0.0------------
1983-08-04 12.5 19.6 11.0- 91.8- 8.0 1.7---- 9.3------------
1983-08-03 20.0 26.6 16.3- 84.5- 5.3 1.7---- 15.7------------
1983-08-02 20.5 30.0 12.4- 78.0- 4.7 0.0---- 0.0------------
1983-08-01 17.9 26.6 8.4- 72.8- 0.0 2.3---- 0.0------------
1983-07-31 17.1 22.1 10.5- 71.0- 2.7 1.0---- 0.0------------
1983-07-30 16.6 21.7 13.8- 85.5- 6.3 0.7---- 1.6------------
1983-07-29 19.2 24.3 13.9- 68.8- 2.3 2.7---- 2.0------------
1983-07-28 20.9 27.6 16.4- 76.8- 2.7 2.0---- 0.0------------
1983-07-27 22.4 29.6 15.9- 69.5- 1.0 0.7---- 0.0------------
1983-07-26 19.7 26.3 15.4- 68.8- 4.0 3.0---- 0.0------------
1983-07-25 15.3 20.7 10.5- 76.3- 8.0 5.7---- 0.9------------
1983-07-24 15.6 18.8 14.2- 87.8- 8.0 0.0---- 0.7------------
1983-07-23 16.0 21.4 12.2- 77.3- 7.3 6.7---- 0.2------------
1983-07-22 12.5 15.9 10.3- 75.3- 8.0 5.0---- 4.2------------
1983-07-21 12.6 17.2 8.7- 73.8- 4.3 7.0---- 0.4------------
1983-07-20 17.2 25.1 11.9- 88.8- 7.7 3.3---- 2.1------------
1983-07-19 21.5 29.5 12.5- 75.8- 4.0 0.7---- 0.0------------
1983-07-18 21.3 28.3 12.2- 72.5- 0.0 1.3---- 0.0------------
1983-07-17 21.2 26.6 14.7- 71.5- 1.7 1.0---- 0.0------------
1983-07-16 20.0 27.8 11.2- 72.5- 0.3 0.7---- 0.0------------
1983-07-15 19.0 24.1 15.2- 71.8- 0.0 2.3---- 0.0------------
1983-07-14 17.0 20.9 14.7- 95.3- 8.0 2.0---- 24.5------------
1983-07-13 15.8 19.2 13.6- 96.5- 8.0 2.0---- 54.6------------
1983-07-12 15.6 21.1 14.6- 95.0- 6.3 0.0---- 18.7------------
1983-07-11 17.5 25.1 13.9- 84.5- 7.3 2.7---- 19.6------------
1983-07-10 20.7 27.7 12.6- 72.8- 1.0 1.0---- 0.0------------
1983-07-09 19.5 26.3 9.7- 71.0- 2.3 0.3---- 0.0------------
1983-07-08 18.7 25.4 9.9- 68.0- 0.0 1.3---- 0.0------------
1983-07-07 20.3 26.6 10.9- 66.3- 0.3 0.0---- 0.0------------
1983-07-06 19.8 26.3 11.9- 71.8- 0.0 1.3---- 0.0------------
1983-07-05 19.4 26.0 10.6- 75.8- 0.0 1.3---- 0.0------------
1983-07-04 17.9 24.8 9.7- 74.0- 0.3 0.3---- 0.0------------
1983-07-03 18.1 22.7 13.9- 81.0- 2.0 2.3---- 0.0------------
1983-07-02 18.5 23.3 14.8- 86.8- 7.3 2.0---- 17.8------------
1983-07-01 18.5 25.6 9.5- 79.8- 4.3 0.0---- 0.0------------
1983-06-30 15.1 22.3 5.5- 81.5- 1.0 1.3---- 0.0------------
1983-06-29 15.5 19.4 11.6- 73.0- 1.7 2.7---- 0.0------------
1983-06-28 16.0 20.2 14.8- 92.5- 8.0 2.7---- 2.6------------
1983-06-27 19.0 25.9 10.9- 83.8- 4.7 0.0---- 6.3------------
1983-06-26 16.4 23.1 14.2- 92.0- 6.7 0.0---- 13.7------------
1983-06-25 20.2 27.6 10.5- 69.3- 2.0 2.7---- 0.0------------
1983-06-24 17.0 25.6 5.5- 73.8- 0.0 2.7---- 0.0------------
1983-06-23 13.7 20.1 4.1- 70.8- 0.0 0.7---- 0.0------------
1983-06-22 15.0 20.9 11.5- 63.8- 0.0 2.7---- 0.0------------
1983-06-21 18.5 24.5 12.5- 77.8- 5.0 1.0---- 0.0------------
1983-06-20 17.1 21.2 14.8- 94.8- 8.0 0.7---- 0.3------------
1983-06-19 15.9 20.3 11.6- 95.0- 8.0 3.0---- 26.3------------
1983-06-18 12.0 14.5 10.2- 95.8- 8.0 5.3---- 20.0------------
1983-06-17 11.4 13.9 10.1- 90.0- 8.0 2.3---- 9.8------------
1983-06-16 11.2 15.2 9.3- 96.8- 8.0 3.0---- 4.0------------
312.0 ms

 

Źródłem pochodzenia danych jest Instytut Meteorologii i Gospodarki Wodnej – Państwowy Instytut Badawczy. Dane Instytutu Meteorologii i Gospodarki Wodnej – Państwowego Instytutu Badawczego zostały przetworzone.

Dane źródłowe można odnaleźć na stronie https://dane.imgw.pl